sensor_id;sensor_type;location;lat;lon;timestamp;temperature;humidity
22379;DHT22;11357;49.990;7.370;2022-08-19T00:01:23;21.50;65.10
22379;DHT22;11357;49.990;7.370;2022-08-19T00:03:49;21.50;65.20
22379;DHT22;11357;49.990;7.370;2022-08-19T00:06:16;21.50;65.10
22379;DHT22;11357;49.990;7.370;2022-08-19T00:08:41;21.60;65.20
22379;DHT22;11357;49.990;7.370;2022-08-19T00:11:08;21.50;65.20
22379;DHT22;11357;49.990;7.370;2022-08-19T00:13:35;21.60;65.30
22379;DHT22;11357;49.990;7.370;2022-08-19T00:16:01;21.60;65.40
22379;DHT22;11357;49.990;7.370;2022-08-19T00:18:27;21.60;65.50
22379;DHT22;11357;49.990;7.370;2022-08-19T00:20:53;21.50;65.60
22379;DHT22;11357;49.990;7.370;2022-08-19T00:23:19;21.50;65.70
22379;DHT22;11357;49.990;7.370;2022-08-19T00:25:44;21.50;65.70
22379;DHT22;11357;49.990;7.370;2022-08-19T00:28:11;21.50;65.70
22379;DHT22;11357;49.990;7.370;2022-08-19T00:30:36;21.50;65.70
22379;DHT22;11357;49.990;7.370;2022-08-19T00:33:02;21.50;65.70
22379;DHT22;11357;49.990;7.370;2022-08-19T00:35:28;21.50;65.80
22379;DHT22;11357;49.990;7.370;2022-08-19T00:37:54;21.50;65.90
22379;DHT22;11357;49.990;7.370;2022-08-19T00:40:21;21.50;66.10
22379;DHT22;11357;49.990;7.370;2022-08-19T00:42:47;21.40;66.20
22379;DHT22;11357;49.990;7.370;2022-08-19T00:45:23;21.40;66.20
22379;DHT22;11357;49.990;7.370;2022-08-19T00:47:49;21.40;66.40
22379;DHT22;11357;49.990;7.370;2022-08-19T00:50:18;21.40;66.30
22379;DHT22;11357;49.990;7.370;2022-08-19T00:52:47;21.40;66.30
22379;DHT22;11357;49.990;7.370;2022-08-19T00:55:24;21.40;66.60
22379;DHT22;11357;49.990;7.370;2022-08-19T00:58:03;21.30;66.80
22379;DHT22;11357;49.990;7.370;2022-08-19T01:00:31;21.30;67.00
22379;DHT22;11357;49.990;7.370;2022-08-19T01:02:57;21.20;67.00
22379;DHT22;11357;49.990;7.370;2022-08-19T01:05:25;21.20;67.20
22379;DHT22;11357;49.990;7.370;2022-08-19T01:07:53;21.20;67.40
22379;DHT22;11357;49.990;7.370;2022-08-19T01:10:23;21.20;67.30
22379;DHT22;11357;49.990;7.370;2022-08-19T01:12:50;21.20;67.30
22379;DHT22;11357;49.990;7.370;2022-08-19T01:15:20;21.20;67.20
22379;DHT22;11357;49.990;7.370;2022-08-19T01:17:47;21.20;67.20
22379;DHT22;11357;49.990;7.370;2022-08-19T01:20:18;21.20;67.20
22379;DHT22;11357;49.990;7.370;2022-08-19T01:22:53;21.20;67.10
22379;DHT22;11357;49.990;7.370;2022-08-19T01:25:22;21.20;67.10
22379;DHT22;11357;49.990;7.370;2022-08-19T01:27:50;21.20;67.10
22379;DHT22;11357;49.990;7.370;2022-08-19T01:30:27;21.10;67.10
22379;DHT22;11357;49.990;7.370;2022-08-19T01:32:54;21.10;67.10
22379;DHT22;11357;49.990;7.370;2022-08-19T01:35:21;21.10;67.10
22379;DHT22;11357;49.990;7.370;2022-08-19T01:37:54;21.00;67.10
22379;DHT22;11357;49.990;7.370;2022-08-19T01:40:23;21.00;67.30
22379;DHT22;11357;49.990;7.370;2022-08-19T01:42:50;21.00;67.30
22379;DHT22;11357;49.990;7.370;2022-08-19T01:45:18;21.00;67.20
22379;DHT22;11357;49.990;7.370;2022-08-19T01:47:43;21.00;67.20
22379;DHT22;11357;49.990;7.370;2022-08-19T01:50:11;21.00;67.10
22379;DHT22;11357;49.990;7.370;2022-08-19T01:52:41;21.00;67.10
22379;DHT22;11357;49.990;7.370;2022-08-19T01:55:11;20.90;67.10
22379;DHT22;11357;49.990;7.370;2022-08-19T01:57:39;20.90;67.00
22379;DHT22;11357;49.990;7.370;2022-08-19T02:00:09;20.90;67.10
22379;DHT22;11357;49.990;7.370;2022-08-19T02:02:36;20.90;67.20
22379;DHT22;11357;49.990;7.370;2022-08-19T02:05:03;20.80;67.30
22379;DHT22;11357;49.990;7.370;2022-08-19T02:07:29;20.80;67.40
22379;DHT22;11357;49.990;7.370;2022-08-19T02:09:55;20.70;67.50
22379;DHT22;11357;49.990;7.370;2022-08-19T02:12:21;20.70;67.60
22379;DHT22;11357;49.990;7.370;2022-08-19T02:14:47;20.70;67.50
22379;DHT22;11357;49.990;7.370;2022-08-19T02:17:13;20.70;67.60
22379;DHT22;11357;49.990;7.370;2022-08-19T02:19:39;20.60;67.60
22379;DHT22;11357;49.990;7.370;2022-08-19T02:22:04;20.60;67.70
22379;DHT22;11357;49.990;7.370;2022-08-19T02:24:30;20.60;67.80
22379;DHT22;11357;49.990;7.370;2022-08-19T02:26:56;20.60;68.00
22379;DHT22;11357;49.990;7.370;2022-08-19T02:29:22;20.60;68.10
22379;DHT22;11357;49.990;7.370;2022-08-19T02:31:48;20.50;68.20
22379;DHT22;11357;49.990;7.370;2022-08-19T02:34:14;20.50;68.20
22379;DHT22;11357;49.990;7.370;2022-08-19T02:36:39;20.50;68.10
22379;DHT22;11357;49.990;7.370;2022-08-19T02:39:05;20.50;68.20
22379;DHT22;11357;49.990;7.370;2022-08-19T02:41:32;20.50;68.30
22379;DHT22;11357;49.990;7.370;2022-08-19T02:44:00;20.40;68.30
22379;DHT22;11357;49.990;7.370;2022-08-19T02:46:29;20.40;69.00
22379;DHT22;11357;49.990;7.370;2022-08-19T02:48:57;20.40;68.30
22379;DHT22;11357;49.990;7.370;2022-08-19T02:51:26;20.30;68.30
22379;DHT22;11357;49.990;7.370;2022-08-19T02:53:52;20.20;68.70
22379;DHT22;11357;49.990;7.370;2022-08-19T02:56:19;20.20;69.00
22379;DHT22;11357;49.990;7.370;2022-08-19T02:58:45;20.20;69.10
22379;DHT22;11357;49.990;7.370;2022-08-19T03:01:18;20.10;69.10
22379;DHT22;11357;49.990;7.370;2022-08-19T03:03:44;20.10;69.30
22379;DHT22;11357;49.990;7.370;2022-08-19T03:06:14;20.10;69.40
22379;DHT22;11357;49.990;7.370;2022-08-19T03:08:42;20.10;69.80
22379;DHT22;11357;49.990;7.370;2022-08-19T03:11:24;20.10;70.00
22379;DHT22;11357;49.990;7.370;2022-08-19T03:13:51;20.10;70.50
22379;DHT22;11357;49.990;7.370;2022-08-19T03:16:22;20.10;70.30
22379;DHT22;11357;49.990;7.370;2022-08-19T03:18:49;20.00;70.40
22379;DHT22;11357;49.990;7.370;2022-08-19T03:21:18;20.10;70.50
22379;DHT22;11357;49.990;7.370;2022-08-19T03:23:44;20.10;70.60
22379;DHT22;11357;49.990;7.370;2022-08-19T03:26:10;20.00;70.50
22379;DHT22;11357;49.990;7.370;2022-08-19T03:28:36;20.00;70.60
22379;DHT22;11357;49.990;7.370;2022-08-19T03:31:06;20.00;70.70
22379;DHT22;11357;49.990;7.370;2022-08-19T03:33:35;20.00;70.80
22379;DHT22;11357;49.990;7.370;2022-08-19T03:36:14;20.00;71.00
22379;DHT22;11357;49.990;7.370;2022-08-19T03:38:45;19.90;71.00
22379;DHT22;11357;49.990;7.370;2022-08-19T03:41:16;20.00;71.10
22379;DHT22;11357;49.990;7.370;2022-08-19T03:43:43;20.00;71.20
22379;DHT22;11357;49.990;7.370;2022-08-19T03:46:14;19.90;71.40
22379;DHT22;11357;49.990;7.370;2022-08-19T03:48:41;19.90;71.50
22379;DHT22;11357;49.990;7.370;2022-08-19T03:51:14;19.90;71.70
22379;DHT22;11357;49.990;7.370;2022-08-19T03:53:40;19.90;71.90
22379;DHT22;11357;49.990;7.370;2022-08-19T03:56:09;19.90;72.00
22379;DHT22;11357;49.990;7.370;2022-08-19T03:58:34;19.90;72.10
22379;DHT22;11357;49.990;7.370;2022-08-19T04:01:01;19.90;71.90
22379;DHT22;11357;49.990;7.370;2022-08-19T04:03:26;19.90;72.10
22379;DHT22;11357;49.990;7.370;2022-08-19T04:05:53;19.90;72.00
22379;DHT22;11357;49.990;7.370;2022-08-19T04:08:19;19.90;72.20
22379;DHT22;11357;49.990;7.370;2022-08-19T04:10:48;19.80;72.20
22379;DHT22;11357;49.990;7.370;2022-08-19T04:13:16;19.90;72.30
22379;DHT22;11357;49.990;7.370;2022-08-19T04:15:43;19.90;72.30
22379;DHT22;11357;49.990;7.370;2022-08-19T04:18:10;19.90;72.20
22379;DHT22;11357;49.990;7.370;2022-08-19T04:20:46;19.80;72.20
22379;DHT22;11357;49.990;7.370;2022-08-19T04:23:14;19.80;72.40
22379;DHT22;11357;49.990;7.370;2022-08-19T04:25:41;19.80;72.30
22379;DHT22;11357;49.990;7.370;2022-08-19T04:28:09;19.80;72.60
22379;DHT22;11357;49.990;7.370;2022-08-19T04:30:43;19.80;72.80
22379;DHT22;11357;49.990;7.370;2022-08-19T04:33:11;19.70;72.80
22379;DHT22;11357;49.990;7.370;2022-08-19T04:35:42;19.80;73.00
22379;DHT22;11357;49.990;7.370;2022-08-19T04:38:09;19.70;73.10
22379;DHT22;11357;49.990;7.370;2022-08-19T04:40:40;19.70;73.20
22379;DHT22;11357;49.990;7.370;2022-08-19T04:43:25;19.60;73.60
22379;DHT22;11357;49.990;7.370;2022-08-19T04:45:51;19.60;73.80
22379;DHT22;11357;49.990;7.370;2022-08-19T04:48:17;19.60;74.00
22379;DHT22;11357;49.990;7.370;2022-08-19T04:50:45;19.60;73.80
22379;DHT22;11357;49.990;7.370;2022-08-19T04:53:10;19.70;73.80
22379;DHT22;11357;49.990;7.370;2022-08-19T04:55:40;19.70;73.60
22379;DHT22;11357;49.990;7.370;2022-08-19T04:58:06;19.70;73.50
22379;DHT22;11357;49.990;7.370;2022-08-19T05:00:32;19.70;73.30
22379;DHT22;11357;49.990;7.370;2022-08-19T05:02:57;19.80;73.30
22379;DHT22;11357;49.990;7.370;2022-08-19T05:05:23;19.80;73.20
22379;DHT22;11357;49.990;7.370;2022-08-19T05:07:49;19.80;73.20
22379;DHT22;11357;49.990;7.370;2022-08-19T05:10:14;19.90;73.30
22379;DHT22;11357;49.990;7.370;2022-08-19T05:12:40;19.90;73.20
22379;DHT22;11357;49.990;7.370;2022-08-19T05:15:06;19.90;73.20
22379;DHT22;11357;49.990;7.370;2022-08-19T05:17:33;19.90;73.20
22379;DHT22;11357;49.990;7.370;2022-08-19T05:19:59;20.00;73.40
22379;DHT22;11357;49.990;7.370;2022-08-19T05:22:45;20.00;73.40
22379;DHT22;11357;49.990;7.370;2022-08-19T05:25:15;20.00;73.40
22379;DHT22;11357;49.990;7.370;2022-08-19T05:27:43;20.10;73.50
22379;DHT22;11357;49.990;7.370;2022-08-19T05:30:10;20.10;73.40
22379;DHT22;11357;49.990;7.370;2022-08-19T05:32:38;20.20;73.50
22379;DHT22;11357;49.990;7.370;2022-08-19T05:35:05;20.20;73.50
22379;DHT22;11357;49.990;7.370;2022-08-19T05:37:31;20.20;73.50
22379;DHT22;11357;49.990;7.370;2022-08-19T05:39:56;20.30;73.60
22379;DHT22;11357;49.990;7.370;2022-08-19T05:42:22;20.30;73.60
22379;DHT22;11357;49.990;7.370;2022-08-19T05:44:49;20.40;73.60
22379;DHT22;11357;49.990;7.370;2022-08-19T05:47:16;20.50;73.70
22379;DHT22;11357;49.990;7.370;2022-08-19T05:49:42;20.50;73.70
22379;DHT22;11357;49.990;7.370;2022-08-19T05:52:10;20.70;73.80
22379;DHT22;11357;49.990;7.370;2022-08-19T05:54:38;20.80;73.90
22379;DHT22;11357;49.990;7.370;2022-08-19T05:57:07;20.90;73.50
22379;DHT22;11357;49.990;7.370;2022-08-19T05:59:33;21.00;73.50
22379;DHT22;11357;49.990;7.370;2022-08-19T06:02:01;21.10;73.30
22379;DHT22;11357;49.990;7.370;2022-08-19T06:04:27;21.30;73.00
22379;DHT22;11357;49.990;7.370;2022-08-19T06:06:54;21.40;72.80
22379;DHT22;11357;49.990;7.370;2022-08-19T06:09:20;21.50;72.60
22379;DHT22;11357;49.990;7.370;2022-08-19T06:11:52;21.60;72.70
22379;DHT22;11357;49.990;7.370;2022-08-19T06:14:26;21.70;72.60
22379;DHT22;11357;49.990;7.370;2022-08-19T06:16:52;21.80;72.30
22379;DHT22;11357;49.990;7.370;2022-08-19T06:19:19;22.00;72.10
22379;DHT22;11357;49.990;7.370;2022-08-19T06:21:47;22.10;72.10
22379;DHT22;11357;49.990;7.370;2022-08-19T06:24:16;22.20;71.80
22379;DHT22;11357;49.990;7.370;2022-08-19T06:26:43;22.40;71.50
22379;DHT22;11357;49.990;7.370;2022-08-19T06:29:12;22.40;71.30
22379;DHT22;11357;49.990;7.370;2022-08-19T06:31:45;22.50;71.10
22379;DHT22;11357;49.990;7.370;2022-08-19T06:34:11;22.50;70.90
22379;DHT22;11357;49.990;7.370;2022-08-19T06:36:43;22.50;70.90
22379;DHT22;11357;49.990;7.370;2022-08-19T06:39:18;22.50;70.90
22379;DHT22;11357;49.990;7.370;2022-08-19T06:41:47;22.60;70.70
22379;DHT22;11357;49.990;7.370;2022-08-19T06:44:14;22.70;70.40
22379;DHT22;11357;49.990;7.370;2022-08-19T06:46:41;22.80;70.10
22379;DHT22;11357;49.990;7.370;2022-08-19T06:49:06;22.80;70.00
22379;DHT22;11357;49.990;7.370;2022-08-19T06:51:36;23.00;69.90
22379;DHT22;11357;49.990;7.370;2022-08-19T06:54:02;23.10;69.50
22379;DHT22;11357;49.990;7.370;2022-08-19T06:56:30;23.30;69.10
22379;DHT22;11357;49.990;7.370;2022-08-19T06:59:07;23.40;68.30
22379;DHT22;11357;49.990;7.370;2022-08-19T07:01:38;23.40;68.00
22379;DHT22;11357;49.990;7.370;2022-08-19T07:04:06;23.50;67.90
22379;DHT22;11357;49.990;7.370;2022-08-19T07:06:32;23.50;67.60
22379;DHT22;11357;49.990;7.370;2022-08-19T07:08:58;23.60;67.30
22379;DHT22;11357;49.990;7.370;2022-08-19T07:11:24;23.70;67.10
22379;DHT22;11357;49.990;7.370;2022-08-19T07:13:50;23.80;66.90
22379;DHT22;11357;49.990;7.370;2022-08-19T07:16:18;23.90;66.50
22379;DHT22;11357;49.990;7.370;2022-08-19T07:18:48;24.00;66.30
22379;DHT22;11357;49.990;7.370;2022-08-19T07:21:25;24.10;65.90
22379;DHT22;11357;49.990;7.370;2022-08-19T07:23:56;24.10;65.70
22379;DHT22;11357;49.990;7.370;2022-08-19T07:26:25;24.20;65.50
22379;DHT22;11357;49.990;7.370;2022-08-19T07:28:51;24.30;65.10
22379;DHT22;11357;49.990;7.370;2022-08-19T07:31:23;24.40;65.00
22379;DHT22;11357;49.990;7.370;2022-08-19T07:33:51;24.50;64.80
22379;DHT22;11357;49.990;7.370;2022-08-19T07:36:20;24.80;64.50
22379;DHT22;11357;49.990;7.370;2022-08-19T07:38:48;25.00;63.80
22379;DHT22;11357;49.990;7.370;2022-08-19T07:41:18;25.20;63.40
22379;DHT22;11357;49.990;7.370;2022-08-19T07:43:44;25.40;62.80
22379;DHT22;11357;49.990;7.370;2022-08-19T07:46:11;25.70;62.30
22379;DHT22;11357;49.990;7.370;2022-08-19T07:48:40;25.90;61.60
22379;DHT22;11357;49.990;7.370;2022-08-19T07:51:07;26.20;60.80
22379;DHT22;11357;49.990;7.370;2022-08-19T07:53:34;26.50;60.30
22379;DHT22;11357;49.990;7.370;2022-08-19T07:56:00;26.60;59.60
22379;DHT22;11357;49.990;7.370;2022-08-19T07:58:31;26.80;59.20
22379;DHT22;11357;49.990;7.370;2022-08-19T08:00:58;26.80;58.90
22379;DHT22;11357;49.990;7.370;2022-08-19T08:03:24;27.00;58.80
22379;DHT22;11357;49.990;7.370;2022-08-19T08:06:12;27.20;58.40
22379;DHT22;11357;49.990;7.370;2022-08-19T08:08:56;27.30;57.90
22379;DHT22;11357;49.990;7.370;2022-08-19T08:11:53;27.50;57.60
22379;DHT22;11357;49.990;7.370;2022-08-19T08:14:23;27.80;57.30
22379;DHT22;11357;49.990;7.370;2022-08-19T08:16:50;28.40;56.30
22379;DHT22;11357;49.990;7.370;2022-08-19T08:19:21;28.70;55.30
22379;DHT22;11357;49.990;7.370;2022-08-19T08:21:48;28.90;54.70
22379;DHT22;11357;49.990;7.370;2022-08-19T08:24:14;29.10;54.00
22379;DHT22;11357;49.990;7.370;2022-08-19T08:26:40;29.10;54.30
22379;DHT22;11357;49.990;7.370;2022-08-19T08:29:06;29.10;53.10
22379;DHT22;11357;49.990;7.370;2022-08-19T08:31:35;29.30;52.80
22379;DHT22;11357;49.990;7.370;2022-08-19T08:34:02;29.80;52.00
22379;DHT22;11357;49.990;7.370;2022-08-19T08:36:28;30.10;50.60
22379;DHT22;11357;49.990;7.370;2022-08-19T08:38:54;30.30;50.20
22379;DHT22;11357;49.990;7.370;2022-08-19T08:44:31;30.90;48.50
22379;DHT22;11357;49.990;7.370;2022-08-19T08:47:05;30.60;47.80
22379;DHT22;11357;49.990;7.370;2022-08-19T08:49:55;30.40;47.80
22379;DHT22;11357;49.990;7.370;2022-08-19T08:54:54;30.80;47.80
22379;DHT22;11357;49.990;7.370;2022-08-19T08:59:57;31.70;46.40
22379;DHT22;11357;49.990;7.370;2022-08-19T09:02:25;32.30;45.50
22379;DHT22;11357;49.990;7.370;2022-08-19T09:04:53;32.60;44.20
22379;DHT22;11357;49.990;7.370;2022-08-19T09:15:28;33.00;42.30
22379;DHT22;11357;49.990;7.370;2022-08-19T09:18:00;33.30;41.70
22379;DHT22;11357;49.990;7.370;2022-08-19T09:20:27;33.50;41.00
22379;DHT22;11357;49.990;7.370;2022-08-19T09:22:53;33.60;40.00
22379;DHT22;11357;49.990;7.370;2022-08-19T09:25:21;33.20;39.90
22379;DHT22;11357;49.990;7.370;2022-08-19T09:27:48;32.70;40.10
22379;DHT22;11357;49.990;7.370;2022-08-19T09:30:20;32.40;40.70
22379;DHT22;11357;49.990;7.370;2022-08-19T09:32:47;32.20;40.80
22379;DHT22;11357;49.990;7.370;2022-08-19T09:35:14;32.20;41.60
22379;DHT22;11357;49.990;7.370;2022-08-19T09:37:41;32.10;40.90
22379;DHT22;11357;49.990;7.370;2022-08-19T09:40:09;32.00;41.40
22379;DHT22;11357;49.990;7.370;2022-08-19T09:42:35;32.50;41.10
22379;DHT22;11357;49.990;7.370;2022-08-19T09:45:01;32.90;40.70
22379;DHT22;11357;49.990;7.370;2022-08-19T09:47:29;33.40;39.30
22379;DHT22;11357;49.990;7.370;2022-08-19T09:49:55;33.80;38.80
22379;DHT22;11357;49.990;7.370;2022-08-19T09:52:20;34.10;38.20
22379;DHT22;11357;49.990;7.370;2022-08-19T09:54:46;34.40;37.60
22379;DHT22;11357;49.990;7.370;2022-08-19T09:57:12;34.70;37.00
22379;DHT22;11357;49.990;7.370;2022-08-19T09:59:39;34.40;36.70
22379;DHT22;11357;49.990;7.370;2022-08-19T10:02:05;34.30;36.90
22379;DHT22;11357;49.990;7.370;2022-08-19T10:04:31;34.50;36.50
22379;DHT22;11357;49.990;7.370;2022-08-19T10:07:15;34.30;36.20
22379;DHT22;11357;49.990;7.370;2022-08-19T10:09:41;33.20;37.00
22379;DHT22;11357;49.990;7.370;2022-08-19T10:15:49;32.40;39.60
22379;DHT22;11357;49.990;7.370;2022-08-19T10:22:49;32.90;38.70
22379;DHT22;11357;49.990;7.370;2022-08-19T10:25:35;32.10;38.40
22379;DHT22;11357;49.990;7.370;2022-08-19T10:28:01;31.50;39.60
22379;DHT22;11357;49.990;7.370;2022-08-19T10:30:27;31.20;39.90
22379;DHT22;11357;49.990;7.370;2022-08-19T10:32:53;31.60;40.10
22379;DHT22;11357;49.990;7.370;2022-08-19T10:35:18;32.20;38.50
22379;DHT22;11357;49.990;7.370;2022-08-19T10:37:44;32.60;37.50
22379;DHT22;11357;49.990;7.370;2022-08-19T10:40:10;33.30;36.30
22379;DHT22;11357;49.990;7.370;2022-08-19T10:42:37;33.60;35.90
22379;DHT22;11357;49.990;7.370;2022-08-19T10:45:04;34.00;35.50
22379;DHT22;11357;49.990;7.370;2022-08-19T10:47:32;34.10;35.20
22379;DHT22;11357;49.990;7.370;2022-08-19T10:49:58;34.60;35.10
22379;DHT22;11357;49.990;7.370;2022-08-19T10:52:45;35.50;34.20
22379;DHT22;11357;49.990;7.370;2022-08-19T10:55:11;35.70;32.90
22379;DHT22;11357;49.990;7.370;2022-08-19T10:57:55;35.50;32.60
22379;DHT22;11357;49.990;7.370;2022-08-19T11:00:24;35.20;32.60
22379;DHT22;11357;49.990;7.370;2022-08-19T11:02:51;34.80;32.80
22379;DHT22;11357;49.990;7.370;2022-08-19T11:05:17;34.80;33.40
22379;DHT22;11357;49.990;7.370;2022-08-19T11:07:44;35.10;33.40
22379;DHT22;11357;49.990;7.370;2022-08-19T11:10:12;35.30;33.00
22379;DHT22;11357;49.990;7.370;2022-08-19T11:12:39;35.60;33.00
22379;DHT22;11357;49.990;7.370;2022-08-19T11:15:09;36.30;33.00
22379;DHT22;11357;49.990;7.370;2022-08-19T11:17:37;37.10;31.80
22379;DHT22;11357;49.990;7.370;2022-08-19T11:20:06;37.70;31.10
22379;DHT22;11357;49.990;7.370;2022-08-19T11:22:32;37.70;29.90
22379;DHT22;11357;49.990;7.370;2022-08-19T11:24:57;37.60;30.10
22379;DHT22;11357;49.990;7.370;2022-08-19T11:27:23;37.70;30.20
22379;DHT22;11357;49.990;7.370;2022-08-19T11:29:49;38.30;30.30
22379;DHT22;11357;49.990;7.370;2022-08-19T11:32:15;38.70;29.20
22379;DHT22;11357;49.990;7.370;2022-08-19T11:34:41;38.60;29.00
22379;DHT22;11357;49.990;7.370;2022-08-19T11:37:07;38.00;29.10
22379;DHT22;11357;49.990;7.370;2022-08-19T11:39:35;38.20;29.60
22379;DHT22;11357;49.990;7.370;2022-08-19T11:42:04;38.60;29.00
22379;DHT22;11357;49.990;7.370;2022-08-19T11:44:48;38.50;28.90
22379;DHT22;11357;49.990;7.370;2022-08-19T11:47:15;38.60;29.30
22379;DHT22;11357;49.990;7.370;2022-08-19T11:49:40;38.90;29.20
22379;DHT22;11357;49.990;7.370;2022-08-19T11:52:06;39.50;28.80
22379;DHT22;11357;49.990;7.370;2022-08-19T11:54:32;39.60;28.70
22379;DHT22;11357;49.990;7.370;2022-08-19T11:56:58;39.70;28.60
22379;DHT22;11357;49.990;7.370;2022-08-19T11:59:24;39.90;28.40
22379;DHT22;11357;49.990;7.370;2022-08-19T12:01:52;39.30;28.60
22379;DHT22;11357;49.990;7.370;2022-08-19T12:04:17;38.90;28.80
22379;DHT22;11357;49.990;7.370;2022-08-19T12:06:43;39.10;29.10
22379;DHT22;11357;49.990;7.370;2022-08-19T12:09:10;39.00;28.60
22379;DHT22;11357;49.990;7.370;2022-08-19T12:11:36;39.00;29.10
22379;DHT22;11357;49.990;7.370;2022-08-19T12:14:03;39.40;29.00
22379;DHT22;11357;49.990;7.370;2022-08-19T12:16:30;40.00;28.80
22379;DHT22;11357;49.990;7.370;2022-08-19T12:18:57;40.70;28.60
22379;DHT22;11357;49.990;7.370;2022-08-19T12:21:26;40.80;27.50
22379;DHT22;11357;49.990;7.370;2022-08-19T12:23:55;39.80;27.60
22379;DHT22;11357;49.990;7.370;2022-08-19T12:26:22;39.00;28.40
22379;DHT22;11357;49.990;7.370;2022-08-19T12:28:48;38.70;28.60
22379;DHT22;11357;49.990;7.370;2022-08-19T12:31:14;38.10;29.00
22379;DHT22;11357;49.990;7.370;2022-08-19T12:33:41;37.20;29.60
22379;DHT22;11357;49.990;7.370;2022-08-19T12:36:09;36.70;30.60
22379;DHT22;11357;49.990;7.370;2022-08-19T12:38:37;36.30;31.10
22379;DHT22;11357;49.990;7.370;2022-08-19T12:41:04;36.00;31.60
22379;DHT22;11357;49.990;7.370;2022-08-19T12:43:33;35.50;31.80
22379;DHT22;11357;49.990;7.370;2022-08-19T12:46:00;34.80;32.50
22379;DHT22;11357;49.990;7.370;2022-08-19T12:48:26;34.30;33.10
22379;DHT22;11357;49.990;7.370;2022-08-19T12:50:52;33.80;33.80
22379;DHT22;11357;49.990;7.370;2022-08-19T12:53:18;33.70;34.60
22379;DHT22;11357;49.990;7.370;2022-08-19T12:55:43;33.80;34.70
22379;DHT22;11357;49.990;7.370;2022-08-19T12:58:10;34.30;34.10
22379;DHT22;11357;49.990;7.370;2022-08-19T13:00:36;34.90;33.20
22379;DHT22;11357;49.990;7.370;2022-08-19T13:03:01;35.50;32.50
22379;DHT22;11357;49.990;7.370;2022-08-19T13:05:30;35.80;32.30
22379;DHT22;11357;49.990;7.370;2022-08-19T13:07:58;35.90;31.40
22379;DHT22;11357;49.990;7.370;2022-08-19T13:10:28;36.30;31.10
22379;DHT22;11357;49.990;7.370;2022-08-19T13:12:54;37.00;30.80
22379;DHT22;11357;49.990;7.370;2022-08-19T13:15:21;37.50;30.20
22379;DHT22;11357;49.990;7.370;2022-08-19T13:17:48;37.50;30.00
22379;DHT22;11357;49.990;7.370;2022-08-19T13:20:16;37.70;30.00
22379;DHT22;11357;49.990;7.370;2022-08-19T13:22:43;38.30;29.60
22379;DHT22;11357;49.990;7.370;2022-08-19T13:25:10;38.80;29.20
22379;DHT22;11357;49.990;7.370;2022-08-19T13:27:36;39.30;28.90
22379;DHT22;11357;49.990;7.370;2022-08-19T13:30:04;39.40;28.60
22379;DHT22;11357;49.990;7.370;2022-08-19T13:32:48;39.30;28.20
22379;DHT22;11357;49.990;7.370;2022-08-19T13:35:32;38.60;28.40
22379;DHT22;11357;49.990;7.370;2022-08-19T13:37:58;37.80;29.00
22379;DHT22;11357;49.990;7.370;2022-08-19T13:40:25;37.70;29.50
22379;DHT22;11357;49.990;7.370;2022-08-19T13:42:53;37.80;29.50
22379;DHT22;11357;49.990;7.370;2022-08-19T13:45:22;37.70;29.70
22379;DHT22;11357;49.990;7.370;2022-08-19T13:47:49;37.40;29.50
22379;DHT22;11357;49.990;7.370;2022-08-19T13:50:19;36.70;29.80
22379;DHT22;11357;49.990;7.370;2022-08-19T13:52:45;35.90;30.20
22379;DHT22;11357;49.990;7.370;2022-08-19T13:55:13;35.40;31.40
22379;DHT22;11357;49.990;7.370;2022-08-19T13:57:39;35.10;31.80
22379;DHT22;11357;49.990;7.370;2022-08-19T14:00:08;34.90;32.10
22379;DHT22;11357;49.990;7.370;2022-08-19T14:02:37;34.70;32.10
22379;DHT22;11357;49.990;7.370;2022-08-19T14:05:06;34.60;32.10
22379;DHT22;11357;49.990;7.370;2022-08-19T14:07:32;34.50;31.90
22379;DHT22;11357;49.990;7.370;2022-08-19T14:09:58;34.30;32.50
22379;DHT22;11357;49.990;7.370;2022-08-19T14:12:23;34.10;32.00
22379;DHT22;11357;49.990;7.370;2022-08-19T14:14:49;33.80;32.30
22379;DHT22;11357;49.990;7.370;2022-08-19T14:17:15;33.60;32.80
22379;DHT22;11357;49.990;7.370;2022-08-19T14:19:42;33.40;32.60
22379;DHT22;11357;49.990;7.370;2022-08-19T14:22:08;33.40;32.60
22379;DHT22;11357;49.990;7.370;2022-08-19T14:24:37;33.60;32.00
22379;DHT22;11357;49.990;7.370;2022-08-19T14:27:05;33.80;32.00
22379;DHT22;11357;49.990;7.370;2022-08-19T14:29:32;34.30;31.30
22379;DHT22;11357;49.990;7.370;2022-08-19T14:31:58;34.80;30.40
22379;DHT22;11357;49.990;7.370;2022-08-19T14:34:25;34.90;29.80
22379;DHT22;11357;49.990;7.370;2022-08-19T14:36:52;34.50;29.70
22379;DHT22;11357;49.990;7.370;2022-08-19T14:39:17;34.20;29.80
22379;DHT22;11357;49.990;7.370;2022-08-19T14:41:43;34.20;30.40
22379;DHT22;11357;49.990;7.370;2022-08-19T14:44:11;34.50;30.40
22379;DHT22;11357;49.990;7.370;2022-08-19T14:46:38;34.60;30.20
22379;DHT22;11357;49.990;7.370;2022-08-19T14:49:04;34.30;29.90
22379;DHT22;11357;49.990;7.370;2022-08-19T14:51:31;33.90;30.00
22379;DHT22;11357;49.990;7.370;2022-08-19T14:53:57;33.50;30.40
22379;DHT22;11357;49.990;7.370;2022-08-19T14:56:25;33.40;31.00
22379;DHT22;11357;49.990;7.370;2022-08-19T14:58:51;33.40;30.90
22379;DHT22;11357;49.990;7.370;2022-08-19T15:01:18;33.30;30.50
22379;DHT22;11357;49.990;7.370;2022-08-19T15:03:46;33.20;30.70
22379;DHT22;11357;49.990;7.370;2022-08-19T15:06:13;33.10;30.80
22379;DHT22;11357;49.990;7.370;2022-08-19T15:08:40;32.90;30.60
22379;DHT22;11357;49.990;7.370;2022-08-19T15:11:15;32.80;30.70
22379;DHT22;11357;49.990;7.370;2022-08-19T15:13:43;32.80;31.00
22379;DHT22;11357;49.990;7.370;2022-08-19T15:16:09;32.80;30.80
22379;DHT22;11357;49.990;7.370;2022-08-19T15:18:36;32.70;30.70
22379;DHT22;11357;49.990;7.370;2022-08-19T15:21:03;32.60;30.90
22379;DHT22;11357;49.990;7.370;2022-08-19T15:23:29;32.70;30.90
22379;DHT22;11357;49.990;7.370;2022-08-19T15:25:55;32.60;30.80
22379;DHT22;11357;49.990;7.370;2022-08-19T15:28:26;32.60;31.10
22379;DHT22;11357;49.990;7.370;2022-08-19T15:30:52;32.40;31.70
22379;DHT22;11357;49.990;7.370;2022-08-19T15:33:19;32.30;32.00
22379;DHT22;11357;49.990;7.370;2022-08-19T15:35:47;32.10;32.60
22379;DHT22;11357;49.990;7.370;2022-08-19T15:38:14;32.00;33.20
22379;DHT22;11357;49.990;7.370;2022-08-19T15:40:41;31.80;33.60
22379;DHT22;11357;49.990;7.370;2022-08-19T15:43:07;31.60;33.60
22379;DHT22;11357;49.990;7.370;2022-08-19T15:45:33;31.60;33.70
22379;DHT22;11357;49.990;7.370;2022-08-19T15:48:01;31.80;33.80
22379;DHT22;11357;49.990;7.370;2022-08-19T15:50:28;32.00;33.80
22379;DHT22;11357;49.990;7.370;2022-08-19T15:52:59;32.10;33.30
22379;DHT22;11357;49.990;7.370;2022-08-19T15:55:30;32.20;33.20
22379;DHT22;11357;49.990;7.370;2022-08-19T15:57:58;32.30;32.50
22379;DHT22;11357;49.990;7.370;2022-08-19T16:00:42;32.60;32.00